Time;durP1;ratioP1;P1;durP2;ratioP2;P2;SDS_P1;SDS_P2;PMS_P1;PMS_P2;Temp;Humidity;BMP_temperature;BMP_pressure;BME280_temperature;BME280_humidity;BME280_pressure;Samples;Min_cycle;Max_cycle;Signal;HPM_P1;HPM_P2
2023/11/19 00:01:32;;;;;;;;;;;;;;;;;;5107029;28;19924;-59
2023/11/19 00:03:58;;;;;;;;;;;;;;;;;;5109505;28;19920;-59
2023/11/19 00:06:25;;;;;;;;;;;;;;;;;;5109418;27;19924;-59
2023/11/19 00:08:51;;;;;;;;;;;;;;;;;;5111089;28;19924;-59
2023/11/19 00:11:17;;;;;;;;;;;;;;;;;;5109439;28;20440;-59
2023/11/19 00:13:43;;;;;;;;;;;;;;;;;;5110062;28;19920;-59
2023/11/19 00:16:09;;;;;;;;;;;;;;;;;;5102615;28;19935;-59
2023/11/19 00:18:36;;;;;;;;;;;;;;;;;;5110284;28;20058;-59
2023/11/19 00:21:02;;;;;;;;;;;;;;;;;;5108768;28;19924;-59
2023/11/19 00:23:28;;;;;;;;;;;;;;;;;;5096868;28;20014;-59
2023/11/19 00:25:54;;;;;;;;;;;;;;;;;;5102467;28;20003;-59
2023/11/19 00:28:19;;;;;;;;;;;;;;;;;;5105624;28;19965;-58
2023/11/19 00:30:45;;;;;;;;;;;;;;;;;;5107570;28;19932;-59
2023/11/19 00:33:11;;;;;;;;;;;;;;;;;;5107017;28;20365;-59
2023/11/19 00:35:37;;;;;;;;;;;;;;;;;;5110477;28;19962;-59
2023/11/19 00:38:03;;;;;;;;;;;;;;;;;;5109949;28;20326;-59
2023/11/19 00:40:29;;;;;;;;;;;;;;;;;;5110581;28;19950;-59
2023/11/19 00:42:55;;;;;;;;;;;;;;;;;;5113430;27;19920;-59
2023/11/19 00:45:21;;;;;;;;;;;;;;;;;;5111528;28;20010;-59
2023/11/19 00:47:47;;;;;;;;;;;;;;;;;;5104728;28;20503;-59
2023/11/19 00:50:13;;;;;;;;;;;;;;;;;;5109590;27;19972;-59
2023/11/19 00:52:39;;;;;;;;;;;;;;;;;;5108767;28;19920;-59
2023/11/19 00:55:05;;;;;;;;;;;;;;;;;;5102880;28;19924;-59
2023/11/19 00:57:32;;;;;;;;;;;;;;;;;;5110559;28;19930;-59
2023/11/19 00:59:58;;;;;;;;;;;;;;;;;;5109157;28;19951;-59
2023/11/19 01:02:24;;;;;;;;;;;;;;;;;;5105604;28;19928;-59
2023/11/19 01:04:50;;;;;;;;;;;;;;;;;;5111778;28;19930;-59
2023/11/19 01:07:16;;;;;;;;;;;;;;;;;;5108806;27;20376;-59
2023/11/19 01:09:42;;;;;;;;;;;;;;;;;;5106487;28;19977;-59
2023/11/19 01:12:08;;;;;;;;;;;;;;;;;;5104303;28;19924;-59
2023/11/19 01:14:35;;;;;;;;;;;;;;;;;;5104102;28;20045;-59
2023/11/19 01:17:01;;;;;;;;;;;;;;;;;;5108887;28;19926;-59
2023/11/19 01:19:28;;;;;;;;;;;;;;;;;;5105574;28;19928;-59
2023/11/19 01:21:54;;;;;;;;;;;;;;;;;;5112085;27;19943;-59
2023/11/19 01:24:20;;;;;;;;;;;;;;;;;;5108231;28;20369;-59
2023/11/19 01:26:46;;;;;;;;;;;;;;;;;;5099291;28;20575;-59
2023/11/19 01:29:15;;;;;;;;;;;;;;;;;;5109811;28;19931;-59
2023/11/19 01:31:41;;;;;;;;;;;;;;;;;;5111351;27;19959;-59
2023/11/19 01:34:07;;;;;;;;;;;;;;;;;;5110828;28;19974;-58
2023/11/19 01:36:33;;;;;;;;;;;;;;;;;;5113370;28;19919;-59
2023/11/19 01:38:59;;;;;;;;;;;;;;;;;;5110057;28;19920;-59
2023/11/19 01:41:25;;;;;;;;;;;;;;;;;;5114573;28;20304;-59
2023/11/19 01:43:51;;;;;;;;;;;;;;;;;;5113735;28;19920;-59
2023/11/19 01:46:17;;;;;;;;;;;;;;;;;;5100196;28;19920;-58
2023/11/19 01:48:43;;;;;;;;;;;;;;;;;;5107414;28;20372;-59
2023/11/19 01:51:09;;;;;;;;;;;;;;;;;;5105647;28;20016;-59
2023/11/19 01:53:35;;;;;;;;;;;;;;;;;;5114271;28;19963;-59
2023/11/19 01:56:01;;;;;;;;;;;;;;;;;;5113257;28;19966;-58
2023/11/19 01:58:27;;;;;;;;;;;;;;;;;;5112628;28;19926;-58
2023/11/19 02:00:52;;;;;;;;;;;;;;;;;;5108806;28;19967;-59
2023/11/19 02:03:19;;;;;;;;;;;;;;;;;;5110192;28;19976;-58
2023/11/19 02:05:46;;;;;;;;;;;;;;;;;;5107683;28;19924;-58
2023/11/19 02:08:13;;;;;;;;;;;;;;;;;;5114346;28;19919;-58
2023/11/19 02:10:39;;;;;;;;;;;;;;;;;;5110835;28;19928;-58
2023/11/19 02:13:06;;;;;;;;;;;;;;;;;;5110119;28;19932;-58
2023/11/19 02:15:32;;;;;;;;;;;;;;;;;;5100247;28;19943;-59
2023/11/19 02:17:58;;;;;;;;;;;;;;;;;;5103291;28;20006;-61
2023/11/19 02:20:26;;;;;;;;;;;;;;;;;;5108552;28;20313;-59
2023/11/19 02:22:52;;;;;;;;;;;;;;;;;;5112203;28;20389;-59
2023/11/19 02:25:18;;;;;;;;;;;;;;;;;;5111213;28;19931;-59
2023/11/19 02:27:44;;;;;;;;;;;;;;;;;;5105516;28;19927;-59
2023/11/19 02:30:10;;;;;;;;;;;;;;;;;;5112160;28;19935;-59
2023/11/19 02:32:38;;;;;;;;;;;;;;;;;;5102967;28;19920;-59
2023/11/19 02:35:04;;;;;;;;;;;;;;;;;;5105553;28;19920;-58
2023/11/19 02:37:30;;;;;;;;;;;;;;;;;;5111289;28;19927;-59
2023/11/19 02:39:56;;;;;;;;;;;;;;;;;;5113546;28;19924;-59
2023/11/19 02:42:22;;;;;;;;;;;;;;;;;;5110216;28;19949;-59
2023/11/19 02:44:48;;;;;;;;;;;;;;;;;;5110520;28;19927;-59
2023/11/19 02:47:14;;;;;;;;;;;;;;;;;;5109921;28;19920;-59
2023/11/19 02:49:40;;;;;;;;;;;;;;;;;;5110830;28;19928;-59
2023/11/19 02:52:06;;;;;;;;;;;;;;;;;;5103725;28;19999;-59
2023/11/19 02:54:34;;;;;;;;;;;;;;;;;;5105652;28;20417;-59
2023/11/19 02:57:01;;;;;;;;;;;;;;;;;;5112745;28;20292;-59
2023/11/19 02:59:27;;;;;;;;;;;;;;;;;;5110119;28;19923;-59
2023/11/19 03:01:53;;;;;;;;;;;;;;;;;;5112662;28;20012;-59
2023/11/19 03:04:23;;;;;;;;;;;;;;;;;;5111120;28;20002;-59
2023/11/19 03:06:49;;;;;;;;;;;;;;;;;;5100434;28;19920;-59
2023/11/19 03:09:14;;;;;;;;;;;;;;;;;;5104759;28;19976;-59
2023/11/19 03:11:40;;;;;;;;;;;;;;;;;;5110240;28;19927;-59
2023/11/19 03:14:07;;;;;;;;;;;;;;;;;;5104509;28;19923;-59
2023/11/19 03:16:33;;;;;;;;;;;;;;;;;;5109258;28;19939;-59
2023/11/19 03:19:00;;;;;;;;;;;;;;;;;;5108196;28;19919;-59
2023/11/19 03:21:26;;;;;;;;;;;;;;;;;;5108762;28;20284;-59
2023/11/19 03:23:52;;;;;;;;;;;;;;;;;;5105128;28;19953;-59
2023/11/19 03:26:18;;;;;;;;;;;;;;;;;;5109198;28;19932;-59
2023/11/19 03:28:44;;;;;;;;;;;;;;;;;;5105635;28;20480;-59
2023/11/19 03:31:09;;;;;;;;;;;;;;;;;;5108748;28;19927;-59
2023/11/19 03:33:35;;;;;;;;;;;;;;;;;;5111026;27;19950;-59
2023/11/19 03:36:01;;;;;;;;;;;;;;;;;;5109809;28;19942;-59
2023/11/19 03:38:27;;;;;;;;;;;;;;;;;;5104906;28;20352;-58
2023/11/19 03:40:53;;;;;;;;;;;;;;;;;;5108181;28;19927;-58
2023/11/19 03:43:19;;;;;;;;;;;;;;;;;;5110865;28;20016;-58
2023/11/19 03:45:46;;;;;;;;;;;;;;;;;;5086583;28;20033;-58
2023/11/19 03:48:12;;;;;;;;;;;;;;;;;;5108075;28;19924;-58
2023/11/19 03:50:38;;;;;;;;;;;;;;;;;;5107000;28;20007;-59
2023/11/19 03:53:04;;;;;;;;;;;;;;;;;;5105698;28;20389;-58
2023/11/19 03:55:31;;;;;;;;;;;;;;;;;;5111885;28;19955;-59
2023/11/19 03:57:57;;;;;;;;;;;;;;;;;;5106176;28;20361;-59
2023/11/19 04:00:23;;;;;;;;;;;;;;;;;;5110671;28;19934;-59
2023/11/19 04:02:48;;;;;;;;;;;;;;;;;;5111850;28;19920;-59
2023/11/19 04:05:14;;;;;;;;;;;;;;;;;;5109759;28;20376;-59
2023/11/19 04:07:40;;;;;;;;;;;;;;;;;;5103803;28;19945;-59
2023/11/19 04:10:06;;;;;;;;;;;;;;;;;;5108786;28;19927;-59
2023/11/19 04:12:32;;;;;;;;;;;;;;;;;;5105349;28;20315;-59
2023/11/19 04:14:58;;;;;;;;;;;;;;;;;;5106367;28;20284;-59
2023/11/19 04:17:24;;;;;;;;;;;;;;;;;;5110468;28;19919;-59
2023/11/19 04:19:50;;;;;;;;;;;;;;;;;;5102842;28;20437;-58
2023/11/19 04:22:16;;;;;;;;;;;;;;;;;;5105182;28;19951;-59
2023/11/19 04:24:44;;;;;;;;;;;;;;;;;;5106159;28;20369;-59
2023/11/19 04:27:10;;;;;;;;;;;;;;;;;;5109132;28;20015;-59
2023/11/19 04:29:36;;;;;;;;;;;;;;;;;;5106196;28;19932;-58
2023/11/19 04:32:02;;;;;;;;;;;;;;;;;;5109246;28;20377;-58
2023/11/19 04:34:28;;;;;;;;;;;;;;;;;;5111995;28;19919;-58
2023/11/19 04:36:54;;;;;;;;;;;;;;;;;;5111814;28;19928;-59
2023/11/19 04:39:20;;;;;;;;;;;;;;;;;;5108271;28;20035;-59
2023/11/19 04:41:48;;;;;;;;;;;;;;;;;;5109201;28;19924;-59
2023/11/19 04:44:14;;;;;;;;;;;;;;;;;;5103234;28;19969;-59
2023/11/19 04:46:39;;;;;;;;;;;;;;;;;;5103196;28;19962;-59
2023/11/19 04:49:05;;;;;;;;;;;;;;;;;;5087423;28;20613;-59
2023/11/19 04:51:31;;;;;;;;;;;;;;;;;;5109827;28;19919;-59
2023/11/19 04:53:57;;;;;;;;;;;;;;;;;;5111595;28;19923;-59
2023/11/19 04:56:24;;;;;;;;;;;;;;;;;;5109675;28;19926;-59
2023/11/19 04:58:50;;;;;;;;;;;;;;;;;;5109386;28;19934;-59
2023/11/19 05:01:16;;;;;;;;;;;;;;;;;;5103762;28;20276;-59
2023/11/19 05:03:42;;;;;;;;;;;;;;;;;;5105325;28;20007;-59
2023/11/19 05:06:08;;;;;;;;;;;;;;;;;;5109435;28;20669;-59
2023/11/19 05:08:34;;;;;;;;;;;;;;;;;;5109570;28;19923;-59
2023/11/19 05:11:00;;;;;;;;;;;;;;;;;;5110581;28;20284;-59
2023/11/19 05:13:26;;;;;;;;;;;;;;;;;;5109093;28;19923;-59
2023/11/19 05:15:52;;;;;;;;;;;;;;;;;;5109021;28;19927;-59
2023/11/19 05:18:18;;;;;;;;;;;;;;;;;;5106564;28;19935;-59
2023/11/19 05:20:44;;;;;;;;;;;;;;;;;;5110612;28;19920;-59
2023/11/19 05:23:10;;;;;;;;;;;;;;;;;;5106998;28;20353;-59
2023/11/19 05:25:36;;;;;;;;;;;;;;;;;;5109443;28;19924;-58
2023/11/19 05:28:02;;;;;;;;;;;;;;;;;;5111663;28;19924;-58
2023/11/19 05:30:27;;;;;;;;;;;;;;;;;;5113472;28;19923;-58
2023/11/19 05:32:53;;;;;;;;;;;;;;;;;;5107726;28;19973;-59
2023/11/19 05:35:19;;;;;;;;;;;;;;;;;;5112096;28;20633;-59
2023/11/19 05:37:45;;;;;;;;;;;;;;;;;;5109870;27;20009;-60
2023/11/19 05:40:14;;;;;;;;;;;;;;;;;;5111219;28;19959;-60
2023/11/19 05:42:40;;;;;;;;;;;;;;;;;;5115747;27;19919;-60
2023/11/19 05:45:07;;;;;;;;;;;;;;;;;;5113473;28;19924;-58
2023/11/19 05:47:33;;;;;;;;;;;;;;;;;;5113748;28;19930;-58
2023/11/19 05:49:59;;;;;;;;;;;;;;;;;;5110054;28;19928;-58
2023/11/19 05:52:25;;;;;;;;;;;;;;;;;;5113169;27;19980;-58
2023/11/19 05:54:54;;;;;;;;;;;;;;;;;;5110688;28;19945;-58
2023/11/19 05:57:23;;;;;;;;;;;;;;;;;;5111394;28;19927;-58
2023/11/19 05:59:49;;;;;;;;;;;;;;;;;;5113688;28;19981;-58
2023/11/19 06:02:15;;;;;;;;;;;;;;;;;;5111367;28;19931;-58
2023/11/19 06:04:43;;;;;;;;;;;;;;;;;;5113683;28;19930;-58
2023/11/19 06:07:09;;;;;;;;;;;;;;;;;;5112310;28;19962;-59
2023/11/19 06:09:35;;;;;;;;;;;;;;;;;;5108251;28;19967;-59
2023/11/19 06:12:07;;;;;;;;;;;;;;;;;;5112793;28;20018;-59
2023/11/19 06:14:33;;;;;;;;;;;;;;;;;;5111844;28;20281;-60
2023/11/19 06:16:59;;;;;;;;;;;;;;;;;;5111896;28;19919;-60
2023/11/19 06:19:25;;;;;;;;;;;;;;;;;;5111257;27;19923;-60
2023/11/19 06:21:51;;;;;;;;;;;;;;;;;;5111692;28;19976;-60
2023/11/19 06:24:17;;;;;;;;;;;;;;;;;;5107004;28;19970;-60
2023/11/19 06:26:43;;;;;;;;;;;;;;;;;;5111753;28;19920;-60
2023/11/19 06:29:09;;;;;;;;;;;;;;;;;;5112633;28;19945;-57
2023/11/19 06:31:35;;;;;;;;;;;;;;;;;;5108924;28;19923;-58
2023/11/19 06:34:00;;;;;;;;;;;;;;;;;;5109135;28;20377;-59
2023/11/19 06:36:27;;;;;;;;;;;;;;;;;;5112537;28;19920;-59
2023/11/19 06:38:53;;;;;;;;;;;;;;;;;;5106076;28;19924;-58
2023/11/19 06:41:19;;;;;;;;;;;;;;;;;;5111332;28;19947;-59
2023/11/19 06:43:44;;;;;;;;;;;;;;;;;;5107516;28;19927;-59
2023/11/19 06:46:10;;;;;;;;;;;;;;;;;;5106412;28;19927;-59
2023/11/19 06:48:36;;;;;;;;;;;;;;;;;;5105220;28;20460;-58
2023/11/19 06:51:02;;;;;;;;;;;;;;;;;;5104266;28;20020;-59
2023/11/19 06:53:28;;;;;;;;;;;;;;;;;;5100802;28;19930;-59
2023/11/19 06:55:54;;;;;;;;;;;;;;;;;;5108948;28;19920;-59
2023/11/19 06:58:20;;;;;;;;;;;;;;;;;;5113769;28;19920;-59
2023/11/19 07:00:47;;;;;;;;;;;;;;;;;;5109751;28;19992;-59
2023/11/19 07:03:13;;;;;;;;;;;;;;;;;;5113691;28;19964;-59
2023/11/19 07:05:39;;;;;;;;;;;;;;;;;;5111772;28;19924;-59
2023/11/19 07:08:05;;;;;;;;;;;;;;;;;;5111963;28;19973;-59
2023/11/19 07:10:30;;;;;;;;;;;;;;;;;;5110757;28;19966;-59
2023/11/19 07:12:57;;;;;;;;;;;;;;;;;;5113366;28;19999;-59
2023/11/19 07:15:23;;;;;;;;;;;;;;;;;;5112763;28;20318;-59
2023/11/19 07:17:49;;;;;;;;;;;;;;;;;;5107778;28;19919;-59
2023/11/19 07:20:15;;;;;;;;;;;;;;;;;;5091843;28;20015;-58
2023/11/19 07:22:43;;;;;;;;;;;;;;;;;;5092915;28;20400;-58
2023/11/19 07:25:09;;;;;;;;;;;;;;;;;;5086168;28;19924;-58
2023/11/19 07:27:34;;;;;;;;;;;;;;;;;;5110168;28;20339;-58
2023/11/19 07:30:01;;;;;;;;;;;;;;;;;;5105364;28;19924;-58
2023/11/19 07:32:27;;;;;;;;;;;;;;;;;;5101043;28;20381;-59
2023/11/19 07:34:52;;;;;;;;;;;;;;;;;;5111450;28;19924;-59
2023/11/19 07:37:18;;;;;;;;;;;;;;;;;;5106756;28;19931;-59
2023/11/19 07:39:44;;;;;;;;;;;;;;;;;;5111438;22;19942;-59
2023/11/19 07:42:10;;;;;;;;;;;;;;;;;;5068051;28;19970;-59
2023/11/19 07:44:36;;;;;;;;;;;;;;;;;;5081534;28;19959;-59
2023/11/19 07:47:03;;;;;;;;;;;;;;;;;;5084808;28;19969;-59
2023/11/19 07:49:30;;;;;;;;;;;;;;;;;;5084072;28;19923;-59
2023/11/19 07:51:56;;;;;;;;;;;;;;;;;;5088872;28;19924;-59
2023/11/19 07:54:22;;;;;;;;;;;;;;;;;;5066147;28;20385;-59
2023/11/19 07:56:49;;;;;;;;;;;;;;;;;;5081624;28;19925;-59
2023/11/19 07:59:15;;;;;;;;;;;;;;;;;;5047965;28;19927;-59
2023/11/19 08:01:41;;;;;;;;;;;;;;;;;;5083995;28;20411;-59
2023/11/19 08:04:07;;;;;;;;;;;;;;;;;;5091171;28;19924;-59
2023/11/19 08:06:33;;;;;;;;;;;;;;;;;;5062118;28;19921;-59
2023/11/19 08:08:59;;;;;;;;;;;;;;;;;;5089221;28;20003;-58
2023/11/19 08:11:25;;;;;;;;;;;;;;;;;;5089022;28;19934;-58
2023/11/19 08:13:51;;;;;;;;;;;;;;;;;;5070164;28;19931;-59
2023/11/19 08:16:17;;;;;;;;;;;;;;;;;;5085032;28;19924;-58
2023/11/19 08:18:43;;;;;;;;;;;;;;;;;;5088692;28;20333;-59
2023/11/19 08:21:09;;;;;;;;;;;;;;;;;;5091140;28;19924;-59
2023/11/19 08:23:35;;;;;;;;;;;;;;;;;;5090499;28;19974;-58
2023/11/19 08:26:00;;;;;;;;;;;;;;;;;;5078911;28;19921;-58
2023/11/19 08:28:27;;;;;;;;;;;;;;;;;;5090837;28;19924;-58
2023/11/19 08:30:53;;;;;;;;;;;;;;;;;;5090699;28;19930;-58
2023/11/19 08:33:22;;;;;;;;;;;;;;;;;;5090756;28;19928;-59
2023/11/19 08:35:48;;;;;;;;;;;;;;;;;;5070897;28;19946;-59
2023/11/19 08:38:14;;;;;;;;;;;;;;;;;;5089527;28;19924;-59
2023/11/19 08:40:40;;;;;;;;;;;;;;;;;;5088892;28;20358;-59
2023/11/19 08:43:06;;;;;;;;;;;;;;;;;;5072731;28;19931;-58
2023/11/19 08:45:32;;;;;;;;;;;;;;;;;;5091214;28;19930;-59
2023/11/19 08:47:58;;;;;;;;;;;;;;;;;;5072005;28;19924;-59
2023/11/19 08:50:24;;;;;;;;;;;;;;;;;;5090571;28;19939;-59
2023/11/19 08:52:50;;;;;;;;;;;;;;;;;;5086056;28;20259;-59
2023/11/19 08:55:16;;;;;;;;;;;;;;;;;;5088567;28;20338;-59
2023/11/19 08:57:42;;;;;;;;;;;;;;;;;;5090287;28;19920;-59
2023/11/19 09:00:08;;;;;;;;;;;;;;;;;;5091387;28;19927;-59
2023/11/19 09:02:34;;;;;;;;;;;;;;;;;;5093179;28;19952;-58
2023/11/19 09:05:00;;;;;;;;;;;;;;;;;;5095517;28;19924;-59
2023/11/19 09:07:26;;;;;;;;;;;;;;;;;;5091039;28;19929;-64
2023/11/19 09:09:52;;;;;;;;;;;;;;;;;;5094727;28;19927;-58
2023/11/19 09:12:18;;;;;;;;;;;;;;;;;;5083074;28;19924;-58
2023/11/19 09:14:44;;;;;;;;;;;;;;;;;;5091224;28;19930;-58
2023/11/19 09:17:10;;;;;;;;;;;;;;;;;;5085705;28;19928;-58
2023/11/19 09:19:36;;;;;;;;;;;;;;;;;;5095427;28;19920;-58
2023/11/19 09:22:02;;;;;;;;;;;;;;;;;;5095170;28;20581;-59
2023/11/19 09:24:28;;;;;;;;;;;;;;;;;;5091314;28;19920;-58
2023/11/19 09:26:56;;;;;;;;;;;;;;;;;;5088766;28;19927;-58
2023/11/19 09:29:22;;;;;;;;;;;;;;;;;;5092534;28;19920;-58
2023/11/19 09:31:49;;;;;;;;;;;;;;;;;;5091646;28;20413;-58
2023/11/19 09:34:15;;;;;;;;;;;;;;;;;;5091973;28;20424;-59
2023/11/19 09:36:43;;;;;;;;;;;;;;;;;;5089190;28;19928;-59
2023/11/19 09:39:09;;;;;;;;;;;;;;;;;;5087679;28;19927;-59
2023/11/19 09:41:35;;;;;;;;;;;;;;;;;;5089810;28;19939;-59
2023/11/19 09:44:01;;;;;;;;;;;;;;;;;;5092077;28;20391;-59
2023/11/19 09:46:27;;;;;;;;;;;;;;;;;;5090981;28;19928;-59
2023/11/19 09:48:54;;;;;;;;;;;;;;;;;;5093160;28;19920;-60
2023/11/19 09:51:21;;;;;;;;;;;;;;;;;;5092681;28;19920;-60
2023/11/19 09:53:46;;;;;;;;;;;;;;;;;;5086796;28;19924;-60
2023/11/19 09:56:12;;;;;;;;;;;;;;;;;;5090407;28;19977;-60
2023/11/19 09:58:40;;;;;;;;;;;;;;;;;;5088333;28;19920;-59
2023/11/19 10:01:09;;;;;;;;;;;;;;;;;;5090902;28;20090;-59
2023/11/19 10:03:38;;;;;;;;;;;;;;;;;;5093650;28;19970;-59
2023/11/19 10:06:03;;;;;;;;;;;;;;;;;;5092189;28;19970;-59
2023/11/19 10:08:29;;;;;;;;;;;;;;;;;;5082241;28;20534;-59
2023/11/19 10:10:55;;;;;;;;;;;;;;;;;;5090166;28;19935;-58
2023/11/19 10:13:21;;;;;;;;;;;;;;;;;;5081022;28;19920;-60
2023/11/19 10:15:47;;;;;;;;;;;;;;;;;;5090123;28;20372;-57
2023/11/19 10:18:13;;;;;;;;;;;;;;;;;;5066609;28;19974;-58
2023/11/19 10:20:39;;;;;;;;;;;;;;;;;;5070315;28;19947;-59
2023/11/19 10:23:05;;;;;;;;;;;;;;;;;;5074051;28;19927;-59
2023/11/19 10:25:31;;;;;;;;;;;;;;;;;;5091627;28;20491;-59
2023/11/19 10:27:57;;;;;;;;;;;;;;;;;;5089729;28;19928;-59
2023/11/19 10:30:23;;;;;;;;;;;;;;;;;;5088905;28;19925;-59
2023/11/19 10:32:49;;;;;;;;;;;;;;;;;;5085783;28;19920;-59
2023/11/19 10:35:15;;;;;;;;;;;;;;;;;;5066380;28;19926;-59
2023/11/19 10:37:41;;;;;;;;;;;;;;;;;;5089170;28;20011;-59
2023/11/19 10:40:10;;;;;;;;;;;;;;;;;;5090794;28;20068;-59
2023/11/19 10:42:36;;;;;;;;;;;;;;;;;;5093506;28;19961;-59
2023/11/19 10:45:02;;;;;;;;;;;;;;;;;;5076692;28;19924;-59
2023/11/19 10:47:30;;;;;;;;;;;;;;;;;;5075089;28;20339;-59
2023/11/19 10:49:56;;;;;;;;;;;;;;;;;;5072111;28;19928;-59
2023/11/19 10:52:22;;;;;;;;;;;;;;;;;;5090915;28;20395;-59
2023/11/19 10:54:48;;;;;;;;;;;;;;;;;;5089229;28;20427;-59
2023/11/19 10:57:14;;;;;;;;;;;;;;;;;;5093543;28;19980;-64
2023/11/19 10:59:40;;;;;;;;;;;;;;;;;;5089196;28;19977;-59
2023/11/19 11:02:05;;;;;;;;;;;;;;;;;;5087303;28;20013;-59
2023/11/19 11:04:31;;;;;;;;;;;;;;;;;;5079749;28;19921;-59
2023/11/19 11:06:58;;;;;;;;;;;;;;;;;;5088447;28;19965;-60
2023/11/19 11:09:24;;;;;;;;;;;;;;;;;;5091367;28;19950;-60
2023/11/19 11:11:50;;;;;;;;;;;;;;;;;;5091616;28;20412;-60
2023/11/19 11:14:16;;;;;;;;;;;;;;;;;;5090513;28;20014;-60
2023/11/19 11:16:41;;;;;;;;;;;;;;;;;;5081698;28;19928;-60
2023/11/19 11:19:09;;;;;;;;;;;;;;;;;;5087128;28;20407;-60
2023/11/19 11:21:35;;;;;;;;;;;;;;;;;;5089429;28;19930;-61
2023/11/19 11:24:01;;;;;;;;;;;;;;;;;;5089159;28;20537;-60
2023/11/19 11:26:27;;;;;;;;;;;;;;;;;;5080469;28;19981;-60
2023/11/19 11:28:56;;;;;;;;;;;;;;;;;;5092259;28;19927;-60
2023/11/19 11:31:25;;;;;;;;;;;;;;;;;;5091206;28;19934;-60
2023/11/19 11:33:51;;;;;;;;;;;;;;;;;;5087931;28;19920;-60
2023/11/19 11:36:17;;;;;;;;;;;;;;;;;;5088904;28;19924;-60
2023/11/19 11:38:43;;;;;;;;;;;;;;;;;;5090785;28;19923;-60
2023/11/19 11:41:09;;;;;;;;;;;;;;;;;;5091524;28;19931;-60
2023/11/19 11:43:35;;;;;;;;;;;;;;;;;;5089171;28;19951;-60
2023/11/19 11:46:03;;;;;;;;;;;;;;;;;;5087759;28;20380;-58
2023/11/19 11:48:30;;;;;;;;;;;;;;;;;;5087945;28;19959;-58
2023/11/19 11:50:56;;;;;;;;;;;;;;;;;;5081892;28;20023;-58
2023/11/19 11:53:25;;;;;;;;;;;;;;;;;;5089455;28;20389;-58
2023/11/19 11:55:51;;;;;;;;;;;;;;;;;;5089902;28;20010;-58
2023/11/19 11:58:17;;;;;;;;;;;;;;;;;;5083132;28;19928;-58
2023/11/19 12:00:43;;;;;;;;;;;;;;;;;;5091121;28;19920;-59
2023/11/19 12:03:09;;;;;;;;;;;;;;;;;;5086675;28;19935;-58
2023/11/19 12:05:35;;;;;;;;;;;;;;;;;;5083929;28;20011;-58
2023/11/19 12:08:01;;;;;;;;;;;;;;;;;;5084791;28;19924;-59
2023/11/19 12:10:27;;;;;;;;;;;;;;;;;;5089403;28;19951;-58
2023/11/19 12:12:53;;;;;;;;;;;;;;;;;;5090027;28;19920;-59
2023/11/19 12:15:24;;;;;;;;;;;;;;;;;;5082970;28;20619;-59
2023/11/19 12:17:50;;;;;;;;;;;;;;;;;;5067049;28;20325;-59
2023/11/19 12:20:16;;;;;;;;;;;;;;;;;;5084425;28;19925;-59
2023/11/19 12:22:42;;;;;;;;;;;;;;;;;;5090841;28;19920;-59
2023/11/19 12:25:16;;;;;;;;;;;;;;;;;;5089965;28;19924;-60
2023/11/19 12:27:42;;;;;;;;;;;;;;;;;;5066287;28;19920;-60
2023/11/19 12:30:08;;;;;;;;;;;;;;;;;;5088232;28;19928;-60
2023/11/19 12:32:34;;;;;;;;;;;;;;;;;;5091713;28;19927;-60
2023/11/19 12:35:00;;;;;;;;;;;;;;;;;;5089191;28;19920;-60
2023/11/19 12:37:26;;;;;;;;;;;;;;;;;;5089895;28;20526;-60
2023/11/19 12:39:51;;;;;;;;;;;;;;;;;;5082143;28;19928;-60
2023/11/19 12:42:17;;;;;;;;;;;;;;;;;;5090525;28;19928;-60
2023/11/19 12:44:43;;;;;;;;;;;;;;;;;;5085266;28;19936;-60
2023/11/19 12:47:11;;;;;;;;;;;;;;;;;;5072957;28;19927;-60
2023/11/19 12:49:37;;;;;;;;;;;;;;;;;;5091640;28;20024;-60
2023/11/19 12:52:03;;;;;;;;;;;;;;;;;;5091805;28;19994;-60
2023/11/19 12:54:29;;;;;;;;;;;;;;;;;;5091372;28;19920;-60
2023/11/19 12:56:55;;;;;;;;;;;;;;;;;;5088744;28;19943;-58
2023/11/19 12:59:21;;;;;;;;;;;;;;;;;;5073048;28;19927;-58
2023/11/19 13:01:47;;;;;;;;;;;;;;;;;;5084415;28;19928;-58
2023/11/19 13:04:13;;;;;;;;;;;;;;;;;;5091617;28;20363;-58
2023/11/19 13:06:39;;;;;;;;;;;;;;;;;;5091422;28;20396;-58
2023/11/19 13:09:05;;;;;;;;;;;;;;;;;;5091169;28;19924;-59
2023/11/19 13:11:31;;;;;;;;;;;;;;;;;;5090257;28;19924;-58
2023/11/19 13:13:56;;;;;;;;;;;;;;;;;;5077582;28;19963;-58
2023/11/19 13:16:22;;;;;;;;;;;;;;;;;;5087314;28;19920;-58
2023/11/19 13:18:48;;;;;;;;;;;;;;;;;;5091124;28;19920;-58
2023/11/19 13:21:14;;;;;;;;;;;;;;;;;;5091304;28;19931;-59
2023/11/19 13:23:40;;;;;;;;;;;;;;;;;;5090256;28;19924;-59
2023/11/19 13:26:06;;;;;;;;;;;;;;;;;;5082808;28;19920;-59
2023/11/19 13:28:32;;;;;;;;;;;;;;;;;;5090976;28;20108;-59
2023/11/19 13:30:58;;;;;;;;;;;;;;;;;;5090966;28;20381;-59
2023/11/19 13:33:24;;;;;;;;;;;;;;;;;;5072711;28;19973;-59
2023/11/19 13:35:50;;;;;;;;;;;;;;;;;;5091058;28;19924;-59
2023/11/19 13:38:15;;;;;;;;;;;;;;;;;;5077643;28;19920;-59
2023/11/19 13:40:41;;;;;;;;;;;;;;;;;;5080956;28;19935;-59
2023/11/19 13:43:07;;;;;;;;;;;;;;;;;;5088453;28;20258;-59
2023/11/19 13:45:33;;;;;;;;;;;;;;;;;;5090754;28;19924;-59
2023/11/19 13:47:59;;;;;;;;;;;;;;;;;;5072762;28;20030;-59
2023/11/19 13:50:25;;;;;;;;;;;;;;;;;;5093872;28;19927;-59
2023/11/19 13:52:51;;;;;;;;;;;;;;;;;;5093570;28;19920;-59
2023/11/19 13:55:18;;;;;;;;;;;;;;;;;;5090654;28;20320;-59
2023/11/19 13:57:44;;;;;;;;;;;;;;;;;;5089138;28;19931;-59
2023/11/19 14:00:13;;;;;;;;;;;;;;;;;;5093977;28;20331;-59
2023/11/19 14:02:39;;;;;;;;;;;;;;;;;;5093219;28;20377;-59
2023/11/19 14:05:05;;;;;;;;;;;;;;;;;;5093801;28;19924;-59
2023/11/19 14:07:31;;;;;;;;;;;;;;;;;;5094122;28;19921;-59
2023/11/19 14:09:58;;;;;;;;;;;;;;;;;;5075454;28;20017;-59
2023/11/19 14:12:23;;;;;;;;;;;;;;;;;;5085516;28;19924;-59
2023/11/19 14:14:49;;;;;;;;;;;;;;;;;;5093183;28;19927;-60
2023/11/19 14:17:15;;;;;;;;;;;;;;;;;;5088834;28;20281;-60
2023/11/19 14:19:42;;;;;;;;;;;;;;;;;;5093095;28;19989;-60
2023/11/19 14:22:08;;;;;;;;;;;;;;;;;;5074333;28;19951;-59
2023/11/19 14:24:34;;;;;;;;;;;;;;;;;;5087909;28;19943;-59
2023/11/19 14:27:00;;;;;;;;;;;;;;;;;;5090025;28;20341;-59
2023/11/19 14:29:26;;;;;;;;;;;;;;;;;;5094141;28;19928;-59
2023/11/19 14:31:53;;;;;;;;;;;;;;;;;;5093700;28;19929;-59
2023/11/19 14:34:19;;;;;;;;;;;;;;;;;;5093831;28;19924;-59
2023/11/19 14:36:45;;;;;;;;;;;;;;;;;;5093809;28;19927;-59
2023/11/19 14:39:11;;;;;;;;;;;;;;;;;;5093242;28;20266;-59
2023/11/19 14:41:37;;;;;;;;;;;;;;;;;;5090206;28;19939;-59
2023/11/19 14:44:03;;;;;;;;;;;;;;;;;;5071656;28;19924;-59
2023/11/19 14:46:29;;;;;;;;;;;;;;;;;;5093586;28;20365;-59
2023/11/19 14:48:55;;;;;;;;;;;;;;;;;;5093511;28;19926;-59
2023/11/19 14:51:21;;;;;;;;;;;;;;;;;;5088247;28;19929;-59
2023/11/19 14:53:46;;;;;;;;;;;;;;;;;;5082285;28;19935;-59
2023/11/19 14:56:13;;;;;;;;;;;;;;;;;;5082257;28;19920;-60
2023/11/19 14:58:39;;;;;;;;;;;;;;;;;;5085990;28;19927;-59
2023/11/19 15:01:04;;;;;;;;;;;;;;;;;;5082951;28;19924;-59
2023/11/19 15:03:30;;;;;;;;;;;;;;;;;;5084810;28;21250;-59
2023/11/19 15:05:56;;;;;;;;;;;;;;;;;;5087615;28;19928;-59
2023/11/19 15:08:22;;;;;;;;;;;;;;;;;;5087273;28;19920;-59
2023/11/19 15:10:48;;;;;;;;;;;;;;;;;;5090444;28;19963;-60
2023/11/19 15:13:14;;;;;;;;;;;;;;;;;;5091135;28;19932;-59
2023/11/19 15:15:40;;;;;;;;;;;;;;;;;;5091662;28;20426;-59
2023/11/19 15:18:06;;;;;;;;;;;;;;;;;;5089770;28;20416;-60
2023/11/19 15:20:32;;;;;;;;;;;;;;;;;;5084197;28;20007;-59
2023/11/19 15:22:58;;;;;;;;;;;;;;;;;;5090977;28;19924;-59
2023/11/19 15:25:24;;;;;;;;;;;;;;;;;;5088432;28;20281;-59
2023/11/19 15:27:50;;;;;;;;;;;;;;;;;;5087901;28;20002;-60
2023/11/19 15:30:15;;;;;;;;;;;;;;;;;;5086879;28;19971;-60
2023/11/19 15:32:42;;;;;;;;;;;;;;;;;;5083170;28;19938;-60
2023/11/19 15:35:08;;;;;;;;;;;;;;;;;;5087453;28;19946;-60
2023/11/19 15:37:34;;;;;;;;;;;;;;;;;;5085086;28;19924;-60
2023/11/19 15:40:00;;;;;;;;;;;;;;;;;;5072585;28;19931;-60
2023/11/19 15:42:26;;;;;;;;;;;;;;;;;;5092319;28;20317;-60
2023/11/19 15:44:52;;;;;;;;;;;;;;;;;;5092554;28;19927;-60
2023/11/19 15:47:18;;;;;;;;;;;;;;;;;;5092047;28;19981;-60
2023/11/19 15:49:45;;;;;;;;;;;;;;;;;;5092357;28;20373;-60
2023/11/19 15:52:12;;;;;;;;;;;;;;;;;;5092554;28;19920;-60
2023/11/19 15:54:38;;;;;;;;;;;;;;;;;;5085533;28;20003;-60
2023/11/19 15:57:04;;;;;;;;;;;;;;;;;;5092252;28;20034;-60
2023/11/19 15:59:31;;;;;;;;;;;;;;;;;;5071142;28;19935;-60
2023/11/19 16:01:57;;;;;;;;;;;;;;;;;;5091356;28;20404;-60
2023/11/19 16:04:23;;;;;;;;;;;;;;;;;;5091093;28;19924;-60
2023/11/19 16:06:49;;;;;;;;;;;;;;;;;;5091339;28;19920;-60
2023/11/19 16:09:18;;;;;;;;;;;;;;;;;;5090054;28;19946;-60
2023/11/19 16:11:45;;;;;;;;;;;;;;;;;;5077520;28;19946;-60
2023/11/19 16:14:11;;;;;;;;;;;;;;;;;;5091166;28;19920;-60
2023/11/19 16:16:37;;;;;;;;;;;;;;;;;;5091537;28;19924;-60
2023/11/19 16:19:05;;;;;;;;;;;;;;;;;;5092096;28;19930;-60
2023/11/19 16:21:31;;;;;;;;;;;;;;;;;;5091597;28;20366;-60
2023/11/19 16:23:57;;;;;;;;;;;;;;;;;;5088404;28;19980;-60
2023/11/19 16:26:23;;;;;;;;;;;;;;;;;;5076459;28;19920;-60
2023/11/19 16:28:49;;;;;;;;;;;;;;;;;;5082725;28;20412;-60
2023/11/19 16:31:15;;;;;;;;;;;;;;;;;;5091300;28;19927;-60
2023/11/19 16:33:41;;;;;;;;;;;;;;;;;;5073653;28;19924;-60
2023/11/19 16:36:07;;;;;;;;;;;;;;;;;;5091873;28;19924;-59
2023/11/19 16:38:33;;;;;;;;;;;;;;;;;;5089074;28;19920;-60